sensor_id;sensor_type;location;lat;lon;timestamp;P1;durP1;ratioP1;P2;durP2;ratioP2
21091;SDS011;10704;42.678;23.288;2023-06-10T00:03:18;13.13;;;7.50;;
21091;SDS011;10704;42.678;23.288;2023-06-10T00:05:44;11.63;;;8.07;;
21091;SDS011;10704;42.678;23.288;2023-06-10T00:08:10;9.63;;;7.28;;
21091;SDS011;10704;42.678;23.288;2023-06-10T00:10:37;8.85;;;7.07;;
21091;SDS011;10704;42.678;23.288;2023-06-10T00:13:04;10.95;;;7.05;;
21091;SDS011;10704;42.678;23.288;2023-06-10T00:19:20;9.85;;;6.75;;
21091;SDS011;10704;42.678;23.288;2023-06-10T00:21:51;10.68;;;5.65;;
21091;SDS011;10704;42.678;23.288;2023-06-10T00:24:18;13.63;;;6.80;;
21091;SDS011;10704;42.678;23.288;2023-06-10T00:26:44;10.65;;;7.40;;
21091;SDS011;10704;42.678;23.288;2023-06-10T00:32:57;10.18;;;7.22;;
21091;SDS011;10704;42.678;23.288;2023-06-10T00:35:23;12.20;;;7.03;;
21091;SDS011;10704;42.678;23.288;2023-06-10T00:41:36;10.57;;;8.02;;
21091;SDS011;10704;42.678;23.288;2023-06-10T00:44:02;12.00;;;8.52;;
21091;SDS011;10704;42.678;23.288;2023-06-10T00:46:29;12.55;;;9.07;;
21091;SDS011;10704;42.678;23.288;2023-06-10T00:48:57;16.73;;;11.23;;
21091;SDS011;10704;42.678;23.288;2023-06-10T00:51:23;19.35;;;10.88;;
21091;SDS011;10704;42.678;23.288;2023-06-10T00:53:51;20.02;;;11.60;;
21091;SDS011;10704;42.678;23.288;2023-06-10T00:56:18;13.45;;;11.52;;
21091;SDS011;10704;42.678;23.288;2023-06-10T00:58:47;16.05;;;11.20;;
21091;SDS011;10704;42.678;23.288;2023-06-10T01:01:13;14.23;;;10.77;;
21091;SDS011;10704;42.678;23.288;2023-06-10T01:03:39;16.35;;;10.40;;
21091;SDS011;10704;42.678;23.288;2023-06-10T01:20:47;12.20;;;8.52;;
21091;SDS011;10704;42.678;23.288;2023-06-10T01:23:14;14.02;;;9.55;;
21091;SDS011;10704;42.678;23.288;2023-06-10T01:25:53;12.85;;;9.40;;
21091;SDS011;10704;42.678;23.288;2023-06-10T01:28:36;11.82;;;8.95;;
21091;SDS011;10704;42.678;23.288;2023-06-10T01:31:14;10.43;;;8.60;;
21091;SDS011;10704;42.678;23.288;2023-06-10T01:33:47;14.10;;;8.32;;
21091;SDS011;10704;42.678;23.288;2023-06-10T01:36:17;12.68;;;9.55;;
21091;SDS011;10704;42.678;23.288;2023-06-10T01:38:46;11.43;;;8.68;;
21091;SDS011;10704;42.678;23.288;2023-06-10T01:41:14;14.35;;;9.30;;
21091;SDS011;10704;42.678;23.288;2023-06-10T01:43:43;16.17;;;8.85;;
21091;SDS011;10704;42.678;23.288;2023-06-10T01:46:10;12.82;;;9.57;;
21091;SDS011;10704;42.678;23.288;2023-06-10T01:48:37;11.45;;;8.80;;
21091;SDS011;10704;42.678;23.288;2023-06-10T01:54:06;14.90;;;8.88;;
21091;SDS011;10704;42.678;23.288;2023-06-10T02:00:19;12.10;;;8.70;;
21091;SDS011;10704;42.678;23.288;2023-06-10T02:02:45;11.68;;;8.63;;
21091;SDS011;10704;42.678;23.288;2023-06-10T02:08:58;11.98;;;7.45;;
21091;SDS011;10704;42.678;23.288;2023-06-10T02:11:27;12.38;;;7.75;;
21091;SDS011;10704;42.678;23.288;2023-06-10T02:14:06;13.10;;;7.45;;
21091;SDS011;10704;42.678;23.288;2023-06-10T02:16:32;12.10;;;7.90;;
21091;SDS011;10704;42.678;23.288;2023-06-10T02:22:58;13.68;;;7.75;;
21091;SDS011;10704;42.678;23.288;2023-06-10T02:25:24;10.27;;;7.88;;
21091;SDS011;10704;42.678;23.288;2023-06-10T02:27:50;14.60;;;7.57;;
21091;SDS011;10704;42.678;23.288;2023-06-10T02:30:16;9.77;;;7.25;;
21091;SDS011;10704;42.678;23.288;2023-06-10T02:32:43;25.60;;;8.48;;
21091;SDS011;10704;42.678;23.288;2023-06-10T02:35:13;10.93;;;7.88;;
21091;SDS011;10704;42.678;23.288;2023-06-10T02:37:40;11.50;;;7.78;;
21091;SDS011;10704;42.678;23.288;2023-06-10T02:40:07;13.07;;;8.10;;
21091;SDS011;10704;42.678;23.288;2023-06-10T02:49:20;15.98;;;7.63;;
21091;SDS011;10704;42.678;23.288;2023-06-10T02:51:46;12.48;;;8.00;;
21091;SDS011;10704;42.678;23.288;2023-06-10T02:54:13;9.57;;;7.60;;
21091;SDS011;10704;42.678;23.288;2023-06-10T03:03:15;11.45;;;8.25;;
21091;SDS011;10704;42.678;23.288;2023-06-10T03:05:51;14.48;;;8.93;;
21091;SDS011;10704;42.678;23.288;2023-06-10T03:08:18;14.00;;;8.35;;
21091;SDS011;10704;42.678;23.288;2023-06-10T03:10:44;12.60;;;8.70;;
21091;SDS011;10704;42.678;23.288;2023-06-10T03:16:35;11.20;;;8.20;;
21091;SDS011;10704;42.678;23.288;2023-06-10T03:26:36;11.40;;;7.63;;
21091;SDS011;10704;42.678;23.288;2023-06-10T03:32:51;15.95;;;11.30;;
21091;SDS011;10704;42.678;23.288;2023-06-10T03:35:21;15.77;;;11.20;;
21091;SDS011;10704;42.678;23.288;2023-06-10T03:37:48;20.73;;;11.88;;
21091;SDS011;10704;42.678;23.288;2023-06-10T03:40:14;15.75;;;10.75;;
21091;SDS011;10704;42.678;23.288;2023-06-10T03:49:51;15.23;;;11.52;;
21091;SDS011;10704;42.678;23.288;2023-06-10T03:52:18;16.95;;;11.43;;
21091;SDS011;10704;42.678;23.288;2023-06-10T03:54:44;16.20;;;10.73;;
21091;SDS011;10704;42.678;23.288;2023-06-10T03:57:10;14.90;;;10.90;;
21091;SDS011;10704;42.678;23.288;2023-06-10T04:02:40;19.02;;;11.32;;
21091;SDS011;10704;42.678;23.288;2023-06-10T04:08:34;17.42;;;10.25;;
21091;SDS011;10704;42.678;23.288;2023-06-10T04:11:01;13.60;;;10.43;;
21091;SDS011;10704;42.678;23.288;2023-06-10T04:13:27;14.40;;;10.40;;
21091;SDS011;10704;42.678;23.288;2023-06-10T04:15:56;17.33;;;10.27;;
21091;SDS011;10704;42.678;23.288;2023-06-10T04:18:22;13.52;;;10.80;;
21091;SDS011;10704;42.678;23.288;2023-06-10T04:20:49;11.95;;;9.80;;
21091;SDS011;10704;42.678;23.288;2023-06-10T04:23:16;18.30;;;10.25;;
21091;SDS011;10704;42.678;23.288;2023-06-10T04:28:47;14.70;;;9.50;;
21091;SDS011;10704;42.678;23.288;2023-06-10T04:34:12;14.73;;;11.35;;
21091;SDS011;10704;42.678;23.288;2023-06-10T04:36:39;14.93;;;11.48;;
21091;SDS011;10704;42.678;23.288;2023-06-10T04:39:05;14.85;;;11.88;;
21091;SDS011;10704;42.678;23.288;2023-06-10T04:41:31;15.25;;;11.73;;
21091;SDS011;10704;42.678;23.288;2023-06-10T04:43:57;14.93;;;11.60;;
21091;SDS011;10704;42.678;23.288;2023-06-10T04:46:24;16.48;;;11.70;;
21091;SDS011;10704;42.678;23.288;2023-06-10T04:48:50;16.98;;;11.18;;
21091;SDS011;10704;42.678;23.288;2023-06-10T04:51:16;13.98;;;10.70;;
21091;SDS011;10704;42.678;23.288;2023-06-10T04:53:42;14.23;;;11.23;;
21091;SDS011;10704;42.678;23.288;2023-06-10T04:56:08;18.15;;;11.35;;
21091;SDS011;10704;42.678;23.288;2023-06-10T04:58:34;15.45;;;11.88;;
21091;SDS011;10704;42.678;23.288;2023-06-10T05:04:22;16.00;;;10.18;;
21091;SDS011;10704;42.678;23.288;2023-06-10T05:06:48;15.23;;;10.63;;
21091;SDS011;10704;42.678;23.288;2023-06-10T05:09:14;15.27;;;9.65;;
21091;SDS011;10704;42.678;23.288;2023-06-10T05:11:40;13.48;;;9.63;;
21091;SDS011;10704;42.678;23.288;2023-06-10T05:14:06;13.57;;;10.35;;
21091;SDS011;10704;42.678;23.288;2023-06-10T05:16:32;19.88;;;11.90;;
21091;SDS011;10704;42.678;23.288;2023-06-10T05:18:58;20.25;;;12.52;;
21091;SDS011;10704;42.678;23.288;2023-06-10T05:21:24;17.85;;;12.23;;
21091;SDS011;10704;42.678;23.288;2023-06-10T05:23:50;16.10;;;12.43;;
21091;SDS011;10704;42.678;23.288;2023-06-10T05:30:04;17.05;;;12.57;;
21091;SDS011;10704;42.678;23.288;2023-06-10T05:32:32;15.25;;;12.18;;
21091;SDS011;10704;42.678;23.288;2023-06-10T05:34:58;17.77;;;13.18;;
21091;SDS011;10704;42.678;23.288;2023-06-10T05:37:26;17.10;;;12.23;;
21091;SDS011;10704;42.678;23.288;2023-06-10T05:39:52;16.08;;;11.85;;
21091;SDS011;10704;42.678;23.288;2023-06-10T05:42:18;17.15;;;12.70;;
21091;SDS011;10704;42.678;23.288;2023-06-10T05:44:44;16.20;;;12.00;;
21091;SDS011;10704;42.678;23.288;2023-06-10T05:47:10;15.15;;;10.35;;
21091;SDS011;10704;42.678;23.288;2023-06-10T05:49:36;15.40;;;10.93;;
21091;SDS011;10704;42.678;23.288;2023-06-10T05:52:02;14.23;;;9.48;;
21091;SDS011;10704;42.678;23.288;2023-06-10T05:54:28;16.00;;;9.98;;
21091;SDS011;10704;42.678;23.288;2023-06-10T05:56:53;14.85;;;10.55;;
21091;SDS011;10704;42.678;23.288;2023-06-10T05:59:19;12.35;;;7.70;;
21091;SDS011;10704;42.678;23.288;2023-06-10T06:01:45;10.90;;;7.60;;
21091;SDS011;10704;42.678;23.288;2023-06-10T06:04:12;14.70;;;7.22;;
21091;SDS011;10704;42.678;23.288;2023-06-10T06:13:18;11.52;;;7.15;;
21091;SDS011;10704;42.678;23.288;2023-06-10T06:19:12;11.23;;;7.30;;
21091;SDS011;10704;42.678;23.288;2023-06-10T06:21:38;11.82;;;8.02;;
21091;SDS011;10704;42.678;23.288;2023-06-10T06:24:04;10.50;;;7.90;;
21091;SDS011;10704;42.678;23.288;2023-06-10T06:26:30;11.98;;;8.05;;
21091;SDS011;10704;42.678;23.288;2023-06-10T06:28:56;13.80;;;7.15;;
21091;SDS011;10704;42.678;23.288;2023-06-10T06:31:21;13.02;;;7.47;;
21091;SDS011;10704;42.678;23.288;2023-06-10T06:33:47;12.07;;;7.57;;
21091;SDS011;10704;42.678;23.288;2023-06-10T06:39:34;11.88;;;6.55;;
21091;SDS011;10704;42.678;23.288;2023-06-10T06:44:54;11.13;;;6.80;;
21091;SDS011;10704;42.678;23.288;2023-06-10T06:47:20;11.77;;;7.35;;
21091;SDS011;10704;42.678;23.288;2023-06-10T06:49:46;13.00;;;6.95;;
21091;SDS011;10704;42.678;23.288;2023-06-10T06:57:48;10.25;;;6.80;;
21091;SDS011;10704;42.678;23.288;2023-06-10T07:04:01;8.52;;;5.90;;
21091;SDS011;10704;42.678;23.288;2023-06-10T07:10:14;9.75;;;5.65;;
21091;SDS011;10704;42.678;23.288;2023-06-10T07:12:40;10.70;;;6.30;;
21091;SDS011;10704;42.678;23.288;2023-06-10T07:15:06;10.75;;;6.60;;
21091;SDS011;10704;42.678;23.288;2023-06-10T07:17:33;9.38;;;6.38;;
21091;SDS011;10704;42.678;23.288;2023-06-10T07:19:59;11.43;;;6.22;;
21091;SDS011;10704;42.678;23.288;2023-06-10T07:22:25;11.05;;;6.60;;
21091;SDS011;10704;42.678;23.288;2023-06-10T07:24:51;14.63;;;8.30;;
21091;SDS011;10704;42.678;23.288;2023-06-10T07:31:08;10.43;;;5.55;;
21091;SDS011;10704;42.678;23.288;2023-06-10T07:33:34;8.32;;;4.85;;
21091;SDS011;10704;42.678;23.288;2023-06-10T07:36:02;8.50;;;5.65;;
21091;SDS011;10704;42.678;23.288;2023-06-10T07:38:27;8.88;;;5.10;;
21091;SDS011;10704;42.678;23.288;2023-06-10T07:44:40;9.07;;;4.60;;
21091;SDS011;10704;42.678;23.288;2023-06-10T07:47:06;7.10;;;4.35;;
21091;SDS011;10704;42.678;23.288;2023-06-10T07:52:52;11.25;;;4.82;;
21091;SDS011;10704;42.678;23.288;2023-06-10T07:59:05;6.70;;;4.35;;
21091;SDS011;10704;42.678;23.288;2023-06-10T08:08:10;6.30;;;4.40;;
21091;SDS011;10704;42.678;23.288;2023-06-10T08:10:36;9.30;;;4.32;;
21091;SDS011;10704;42.678;23.288;2023-06-10T08:16:31;8.05;;;3.97;;
21091;SDS011;10704;42.678;23.288;2023-06-10T08:18:56;6.20;;;3.80;;
21091;SDS011;10704;42.678;23.288;2023-06-10T08:25:29;8.70;;;4.80;;
21091;SDS011;10704;42.678;23.288;2023-06-10T08:27:55;8.13;;;5.15;;
21091;SDS011;10704;42.678;23.288;2023-06-10T08:34:10;8.00;;;4.55;;
21091;SDS011;10704;42.678;23.288;2023-06-10T08:36:37;7.13;;;4.95;;
21091;SDS011;10704;42.678;23.288;2023-06-10T08:39:02;8.75;;;4.55;;
21091;SDS011;10704;42.678;23.288;2023-06-10T08:45:17;14.07;;;5.15;;
21091;SDS011;10704;42.678;23.288;2023-06-10T08:47:46;12.50;;;4.53;;
21091;SDS011;10704;42.678;23.288;2023-06-10T08:57:55;5.85;;;3.75;;
21091;SDS011;10704;42.678;23.288;2023-06-10T09:00:21;9.38;;;5.20;;
21091;SDS011;10704;42.678;23.288;2023-06-10T09:02:47;6.72;;;5.10;;
21091;SDS011;10704;42.678;23.288;2023-06-10T09:05:14;12.63;;;5.22;;
21091;SDS011;10704;42.678;23.288;2023-06-10T09:07:41;9.70;;;4.80;;
21091;SDS011;10704;42.678;23.288;2023-06-10T09:13:12;7.20;;;4.90;;
21091;SDS011;10704;42.678;23.288;2023-06-10T09:18:59;6.50;;;4.18;;
21091;SDS011;10704;42.678;23.288;2023-06-10T09:21:26;6.32;;;3.88;;
21091;SDS011;10704;42.678;23.288;2023-06-10T09:23:51;6.88;;;3.70;;
21091;SDS011;10704;42.678;23.288;2023-06-10T09:26:18;6.30;;;3.78;;
21091;SDS011;10704;42.678;23.288;2023-06-10T09:28:57;5.95;;;3.50;;
21091;SDS011;10704;42.678;23.288;2023-06-10T09:31:40;8.85;;;3.65;;
21091;SDS011;10704;42.678;23.288;2023-06-10T09:34:12;6.43;;;3.50;;
21091;SDS011;10704;42.678;23.288;2023-06-10T09:43:11;5.65;;;3.88;;
21091;SDS011;10704;42.678;23.288;2023-06-10T09:49:28;6.95;;;4.15;;
21091;SDS011;10704;42.678;23.288;2023-06-10T09:51:54;7.47;;;3.85;;
21091;SDS011;10704;42.678;23.288;2023-06-10T09:54:21;6.38;;;4.45;;
21091;SDS011;10704;42.678;23.288;2023-06-10T09:56:47;8.07;;;4.15;;
21091;SDS011;10704;42.678;23.288;2023-06-10T09:59:14;5.70;;;3.78;;
21091;SDS011;10704;42.678;23.288;2023-06-10T10:01:41;8.13;;;4.00;;
21091;SDS011;10704;42.678;23.288;2023-06-10T10:04:07;5.43;;;3.70;;
21091;SDS011;10704;42.678;23.288;2023-06-10T10:06:32;7.30;;;3.88;;
21091;SDS011;10704;42.678;23.288;2023-06-10T10:09:00;8.60;;;6.45;;
21091;SDS011;10704;42.678;23.288;2023-06-10T10:11:26;6.80;;;4.78;;
21091;SDS011;10704;42.678;23.288;2023-06-10T10:13:53;5.90;;;4.10;;
21091;SDS011;10704;42.678;23.288;2023-06-10T10:16:19;6.15;;;4.00;;
21091;SDS011;10704;42.678;23.288;2023-06-10T10:18:53;6.30;;;3.63;;
21091;SDS011;10704;42.678;23.288;2023-06-10T10:24:31;6.85;;;3.63;;
21091;SDS011;10704;42.678;23.288;2023-06-10T10:27:21;5.40;;;3.63;;
21091;SDS011;10704;42.678;23.288;2023-06-10T10:30:00;6.55;;;4.05;;
21091;SDS011;10704;42.678;23.288;2023-06-10T10:35:59;5.53;;;3.42;;
21091;SDS011;10704;42.678;23.288;2023-06-10T10:38:26;6.80;;;3.00;;
21091;SDS011;10704;42.678;23.288;2023-06-10T10:44:41;7.78;;;3.78;;
21091;SDS011;10704;42.678;23.288;2023-06-10T10:47:10;6.50;;;3.55;;
21091;SDS011;10704;42.678;23.288;2023-06-10T10:53:26;5.65;;;3.20;;
21091;SDS011;10704;42.678;23.288;2023-06-10T11:02:34;8.00;;;4.20;;
21091;SDS011;10704;42.678;23.288;2023-06-10T11:05:01;6.25;;;3.30;;
21091;SDS011;10704;42.678;23.288;2023-06-10T11:07:30;6.30;;;3.75;;
21091;SDS011;10704;42.678;23.288;2023-06-10T11:10:00;6.50;;;3.55;;
21091;SDS011;10704;42.678;23.288;2023-06-10T11:15:32;6.15;;;3.67;;
21091;SDS011;10704;42.678;23.288;2023-06-10T11:18:08;6.57;;;3.42;;
21091;SDS011;10704;42.678;23.288;2023-06-10T11:31:22;5.88;;;3.40;;
21091;SDS011;10704;42.678;23.288;2023-06-10T11:34:07;7.30;;;3.67;;
21091;SDS011;10704;42.678;23.288;2023-06-10T11:36:34;6.28;;;3.88;;
21091;SDS011;10704;42.678;23.288;2023-06-10T11:39:10;5.90;;;3.70;;
21091;SDS011;10704;42.678;23.288;2023-06-10T11:44:21;7.97;;;4.07;;
21091;SDS011;10704;42.678;23.288;2023-06-10T11:49:45;6.20;;;3.95;;
21091;SDS011;10704;42.678;23.288;2023-06-10T11:52:26;5.55;;;3.70;;
21091;SDS011;10704;42.678;23.288;2023-06-10T11:58:43;8.15;;;4.05;;
21091;SDS011;10704;42.678;23.288;2023-06-10T12:01:12;9.13;;;4.13;;
21091;SDS011;10704;42.678;23.288;2023-06-10T12:03:46;6.70;;;3.72;;
21091;SDS011;10704;42.678;23.288;2023-06-10T12:13:11;8.20;;;4.35;;
21091;SDS011;10704;42.678;23.288;2023-06-10T12:15:37;8.55;;;4.22;;
21091;SDS011;10704;42.678;23.288;2023-06-10T12:18:03;6.68;;;3.97;;
21091;SDS011;10704;42.678;23.288;2023-06-10T12:20:30;9.13;;;4.20;;
21091;SDS011;10704;42.678;23.288;2023-06-10T12:23:08;5.60;;;3.53;;
21091;SDS011;10704;42.678;23.288;2023-06-10T12:29:36;6.43;;;3.67;;
21091;SDS011;10704;42.678;23.288;2023-06-10T12:32:02;7.97;;;4.20;;
21091;SDS011;10704;42.678;23.288;2023-06-10T12:34:37;6.68;;;4.00;;
21091;SDS011;10704;42.678;23.288;2023-06-10T12:37:05;5.53;;;3.88;;
21091;SDS011;10704;42.678;23.288;2023-06-10T12:39:54;6.95;;;4.15;;
21091;SDS011;10704;42.678;23.288;2023-06-10T12:49:06;5.63;;;3.63;;
21091;SDS011;10704;42.678;23.288;2023-06-10T12:51:32;4.47;;;3.03;;
21091;SDS011;10704;42.678;23.288;2023-06-10T12:53:59;7.13;;;3.20;;
21091;SDS011;10704;42.678;23.288;2023-06-10T12:56:25;5.90;;;4.20;;
21091;SDS011;10704;42.678;23.288;2023-06-10T12:58:51;6.40;;;4.05;;
21091;SDS011;10704;42.678;23.288;2023-06-10T13:08:51;10.00;;;3.50;;
21091;SDS011;10704;42.678;23.288;2023-06-10T13:11:17;4.60;;;3.17;;
21091;SDS011;10704;42.678;23.288;2023-06-10T13:13:43;5.82;;;4.05;;
21091;SDS011;10704;42.678;23.288;2023-06-10T13:19:56;8.27;;;3.88;;
21091;SDS011;10704;42.678;23.288;2023-06-10T13:22:22;9.65;;;4.93;;
21091;SDS011;10704;42.678;23.288;2023-06-10T13:24:49;8.07;;;4.47;;
21091;SDS011;10704;42.678;23.288;2023-06-10T13:31:02;6.25;;;4.15;;
21091;SDS011;10704;42.678;23.288;2023-06-10T13:36:32;16.45;;;6.68;;
21091;SDS011;10704;42.678;23.288;2023-06-10T13:38:58;15.07;;;8.85;;
21091;SDS011;10704;42.678;23.288;2023-06-10T13:45:11;11.98;;;7.50;;
21091;SDS011;10704;42.678;23.288;2023-06-10T13:47:37;15.70;;;8.93;;
21091;SDS011;10704;42.678;23.288;2023-06-10T13:53:51;14.98;;;7.20;;
21091;SDS011;10704;42.678;23.288;2023-06-10T13:56:17;9.70;;;6.25;;
21091;SDS011;10704;42.678;23.288;2023-06-10T13:58:43;10.55;;;5.32;;
21091;SDS011;10704;42.678;23.288;2023-06-10T14:01:10;11.05;;;6.43;;
21091;SDS011;10704;42.678;23.288;2023-06-10T14:03:36;9.00;;;5.43;;
21091;SDS011;10704;42.678;23.288;2023-06-10T14:06:02;16.58;;;5.85;;
21091;SDS011;10704;42.678;23.288;2023-06-10T14:08:28;9.25;;;4.55;;
21091;SDS011;10704;42.678;23.288;2023-06-10T14:10:54;12.02;;;4.68;;
21091;SDS011;10704;42.678;23.288;2023-06-10T14:13:20;8.00;;;4.78;;
21091;SDS011;10704;42.678;23.288;2023-06-10T14:15:46;7.05;;;4.47;;
21091;SDS011;10704;42.678;23.288;2023-06-10T14:18:12;9.15;;;4.57;;
21091;SDS011;10704;42.678;23.288;2023-06-10T14:20:38;7.50;;;4.45;;
21091;SDS011;10704;42.678;23.288;2023-06-10T14:23:04;8.57;;;4.65;;
21091;SDS011;10704;42.678;23.288;2023-06-10T14:25:30;7.05;;;4.00;;
21091;SDS011;10704;42.678;23.288;2023-06-10T14:27:55;6.75;;;4.47;;
21091;SDS011;10704;42.678;23.288;2023-06-10T14:30:22;8.90;;;4.85;;
21091;SDS011;10704;42.678;23.288;2023-06-10T14:32:48;8.75;;;4.00;;
21091;SDS011;10704;42.678;23.288;2023-06-10T14:35:14;6.85;;;4.47;;
21091;SDS011;10704;42.678;23.288;2023-06-10T14:37:40;8.98;;;4.93;;
21091;SDS011;10704;42.678;23.288;2023-06-10T14:40:06;9.63;;;5.00;;
21091;SDS011;10704;42.678;23.288;2023-06-10T14:42:32;7.68;;;4.40;;
21091;SDS011;10704;42.678;23.288;2023-06-10T14:47:35;5.25;;;3.65;;
21091;SDS011;10704;42.678;23.288;2023-06-10T14:57:36;6.63;;;4.40;;
21091;SDS011;10704;42.678;23.288;2023-06-10T15:03:10;8.32;;;4.22;;
21091;SDS011;10704;42.678;23.288;2023-06-10T15:05:36;5.10;;;3.80;;
21091;SDS011;10704;42.678;23.288;2023-06-10T15:08:03;4.70;;;3.22;;
21091;SDS011;10704;42.678;23.288;2023-06-10T15:10:30;6.05;;;3.15;;
21091;SDS011;10704;42.678;23.288;2023-06-10T15:12:55;7.20;;;3.78;;
21091;SDS011;10704;42.678;23.288;2023-06-10T15:15:22;6.43;;;4.15;;
21091;SDS011;10704;42.678;23.288;2023-06-10T15:17:48;8.27;;;4.30;;
21091;SDS011;10704;42.678;23.288;2023-06-10T15:24:12;7.45;;;4.20;;
21091;SDS011;10704;42.678;23.288;2023-06-10T15:26:38;7.03;;;4.13;;
21091;SDS011;10704;42.678;23.288;2023-06-10T15:32:51;9.20;;;6.03;;
21091;SDS011;10704;42.678;23.288;2023-06-10T15:35:17;7.95;;;5.25;;
21091;SDS011;10704;42.678;23.288;2023-06-10T15:37:43;7.32;;;4.10;;
21091;SDS011;10704;42.678;23.288;2023-06-10T15:40:09;8.20;;;4.70;;
21091;SDS011;10704;42.678;23.288;2023-06-10T15:42:35;7.80;;;4.50;;
21091;SDS011;10704;42.678;23.288;2023-06-10T15:52:35;8.00;;;5.07;;
21091;SDS011;10704;42.678;23.288;2023-06-10T15:55:01;5.80;;;3.80;;
21091;SDS011;10704;42.678;23.288;2023-06-10T15:57:27;6.25;;;4.32;;
21091;SDS011;10704;42.678;23.288;2023-06-10T15:59:53;7.40;;;4.72;;
21091;SDS011;10704;42.678;23.288;2023-06-10T16:02:19;10.35;;;5.75;;
21091;SDS011;10704;42.678;23.288;2023-06-10T16:04:45;7.15;;;4.75;;
21091;SDS011;10704;42.678;23.288;2023-06-10T16:07:11;6.55;;;4.30;;
21091;SDS011;10704;42.678;23.288;2023-06-10T16:09:37;7.57;;;4.25;;
21091;SDS011;10704;42.678;23.288;2023-06-10T16:12:03;8.70;;;4.90;;
21091;SDS011;10704;42.678;23.288;2023-06-10T16:14:29;5.93;;;3.78;;
21091;SDS011;10704;42.678;23.288;2023-06-10T16:16:55;6.00;;;3.85;;
21091;SDS011;10704;42.678;23.288;2023-06-10T16:19:25;7.22;;;4.03;;
21091;SDS011;10704;42.678;23.288;2023-06-10T16:21:51;6.70;;;3.88;;
21091;SDS011;10704;42.678;23.288;2023-06-10T16:24:17;7.85;;;4.30;;
21091;SDS011;10704;42.678;23.288;2023-06-10T16:26:43;8.05;;;4.57;;
21091;SDS011;10704;42.678;23.288;2023-06-10T16:32:58;8.50;;;4.53;;
21091;SDS011;10704;42.678;23.288;2023-06-10T16:35:24;6.40;;;4.18;;
21091;SDS011;10704;42.678;23.288;2023-06-10T16:37:50;8.48;;;4.38;;
21091;SDS011;10704;42.678;23.288;2023-06-10T16:40:16;7.18;;;3.95;;
21091;SDS011;10704;42.678;23.288;2023-06-10T16:45:28;6.03;;;3.83;;
21091;SDS011;10704;42.678;23.288;2023-06-10T16:51:41;8.07;;;4.47;;
21091;SDS011;10704;42.678;23.288;2023-06-10T16:54:07;9.80;;;4.95;;
21091;SDS011;10704;42.678;23.288;2023-06-10T16:56:33;9.00;;;5.18;;
21091;SDS011;10704;42.678;23.288;2023-06-10T16:59:00;7.45;;;4.90;;
21091;SDS011;10704;42.678;23.288;2023-06-10T17:01:26;11.07;;;5.90;;
21091;SDS011;10704;42.678;23.288;2023-06-10T17:03:52;10.20;;;5.40;;
21091;SDS011;10704;42.678;23.288;2023-06-10T17:06:18;9.88;;;5.10;;
21091;SDS011;10704;42.678;23.288;2023-06-10T17:08:50;7.80;;;5.50;;
21091;SDS011;10704;42.678;23.288;2023-06-10T17:11:17;9.02;;;5.32;;
21091;SDS011;10704;42.678;23.288;2023-06-10T17:16:32;8.95;;;5.10;;
21091;SDS011;10704;42.678;23.288;2023-06-10T17:18:57;9.02;;;5.20;;
21091;SDS011;10704;42.678;23.288;2023-06-10T17:21:23;7.95;;;5.07;;
21091;SDS011;10704;42.678;23.288;2023-06-10T17:23:49;10.57;;;5.32;;
21091;SDS011;10704;42.678;23.288;2023-06-10T17:26:15;7.90;;;4.97;;
21091;SDS011;10704;42.678;23.288;2023-06-10T17:28:41;8.10;;;5.57;;
21091;SDS011;10704;42.678;23.288;2023-06-10T17:31:07;9.10;;;4.85;;
21091;SDS011;10704;42.678;23.288;2023-06-10T17:33:32;8.95;;;4.85;;
21091;SDS011;10704;42.678;23.288;2023-06-10T17:42:56;7.57;;;4.78;;
21091;SDS011;10704;42.678;23.288;2023-06-10T17:45:22;8.10;;;4.57;;
21091;SDS011;10704;42.678;23.288;2023-06-10T17:47:48;8.68;;;5.15;;
21091;SDS011;10704;42.678;23.288;2023-06-10T17:54:01;9.25;;;5.10;;
21091;SDS011;10704;42.678;23.288;2023-06-10T17:59:36;10.32;;;4.57;;
21091;SDS011;10704;42.678;23.288;2023-06-10T18:02:02;8.00;;;5.03;;
21091;SDS011;10704;42.678;23.288;2023-06-10T18:04:28;9.10;;;5.22;;
21091;SDS011;10704;42.678;23.288;2023-06-10T18:10:41;7.03;;;4.53;;
21091;SDS011;10704;42.678;23.288;2023-06-10T18:16:54;8.80;;;5.18;;
21091;SDS011;10704;42.678;23.288;2023-06-10T18:23:07;6.95;;;4.63;;
21091;SDS011;10704;42.678;23.288;2023-06-10T18:25:33;8.70;;;4.40;;
21091;SDS011;10704;42.678;23.288;2023-06-10T18:27:59;9.10;;;5.32;;
21091;SDS011;10704;42.678;23.288;2023-06-10T18:30:25;9.02;;;5.65;;
21091;SDS011;10704;42.678;23.288;2023-06-10T18:32:51;8.15;;;5.20;;
21091;SDS011;10704;42.678;23.288;2023-06-10T18:39:04;7.97;;;4.90;;
21091;SDS011;10704;42.678;23.288;2023-06-10T18:44:41;8.65;;;4.90;;
21091;SDS011;10704;42.678;23.288;2023-06-10T18:53:12;8.63;;;5.32;;
21091;SDS011;10704;42.678;23.288;2023-06-10T18:59:25;9.48;;;5.53;;
21091;SDS011;10704;42.678;23.288;2023-06-10T19:08:47;8.93;;;5.32;;
21091;SDS011;10704;42.678;23.288;2023-06-10T19:20:37;9.50;;;5.57;;
21091;SDS011;10704;42.678;23.288;2023-06-10T19:23:05;9.95;;;5.32;;
21091;SDS011;10704;42.678;23.288;2023-06-10T19:25:31;7.55;;;4.78;;
21091;SDS011;10704;42.678;23.288;2023-06-10T19:27:57;9.73;;;5.70;;
21091;SDS011;10704;42.678;23.288;2023-06-10T19:30:23;8.93;;;4.80;;
21091;SDS011;10704;42.678;23.288;2023-06-10T19:32:49;9.10;;;5.70;;
21091;SDS011;10704;42.678;23.288;2023-06-10T19:35:15;8.38;;;4.53;;
21091;SDS011;10704;42.678;23.288;2023-06-10T19:37:41;7.57;;;4.50;;
21091;SDS011;10704;42.678;23.288;2023-06-10T19:40:07;8.05;;;5.25;;
21091;SDS011;10704;42.678;23.288;2023-06-10T19:42:33;9.38;;;5.65;;
21091;SDS011;10704;42.678;23.288;2023-06-10T19:45:05;8.85;;;5.43;;
21091;SDS011;10704;42.678;23.288;2023-06-10T19:50:41;9.20;;;5.72;;
21091;SDS011;10704;42.678;23.288;2023-06-10T19:53:07;15.07;;;6.68;;
21091;SDS011;10704;42.678;23.288;2023-06-10T19:55:33;11.48;;;6.45;;
21091;SDS011;10704;42.678;23.288;2023-06-10T19:57:58;13.13;;;7.03;;
21091;SDS011;10704;42.678;23.288;2023-06-10T20:00:24;13.95;;;7.07;;
21091;SDS011;10704;42.678;23.288;2023-06-10T20:02:50;12.00;;;6.70;;
21091;SDS011;10704;42.678;23.288;2023-06-10T20:05:16;9.32;;;7.28;;
21091;SDS011;10704;42.678;23.288;2023-06-10T20:07:42;17.58;;;11.02;;
21091;SDS011;10704;42.678;23.288;2023-06-10T20:10:08;16.20;;;9.35;;
21091;SDS011;10704;42.678;23.288;2023-06-10T20:12:35;14.80;;;9.50;;
21091;SDS011;10704;42.678;23.288;2023-06-10T20:15:00;16.17;;;9.88;;
21091;SDS011;10704;42.678;23.288;2023-06-10T20:20:26;13.95;;;9.65;;
21091;SDS011;10704;42.678;23.288;2023-06-10T20:26:39;19.35;;;11.20;;
21091;SDS011;10704;42.678;23.288;2023-06-10T20:29:05;19.40;;;12.10;;
21091;SDS011;10704;42.678;23.288;2023-06-10T20:35:18;14.82;;;9.20;;
21091;SDS011;10704;42.678;23.288;2023-06-10T20:41:32;14.55;;;8.30;;
21091;SDS011;10704;42.678;23.288;2023-06-10T20:47:46;13.77;;;7.80;;
21091;SDS011;10704;42.678;23.288;2023-06-10T20:50:12;9.68;;;7.00;;
21091;SDS011;10704;42.678;23.288;2023-06-10T20:56:25;12.65;;;7.75;;
21091;SDS011;10704;42.678;23.288;2023-06-10T20:58:51;13.15;;;7.53;;
21091;SDS011;10704;42.678;23.288;2023-06-10T21:01:17;11.40;;;7.60;;
21091;SDS011;10704;42.678;23.288;2023-06-10T21:03:43;10.15;;;6.97;;
21091;SDS011;10704;42.678;23.288;2023-06-10T21:09:57;10.05;;;6.93;;